createdAt,value
2018-09-12T00:01:45.622Z,93.80
2018-09-12T00:04:15.222Z,93.70
2018-09-12T00:06:44.811Z,93.60
2018-09-12T00:09:14.377Z,93.70
2018-09-12T00:11:43.981Z,93.80
2018-09-12T00:14:13.585Z,93.80
2018-09-12T00:16:43.211Z,93.90
2018-09-12T00:19:12.831Z,94.10
2018-09-12T00:21:42.417Z,93.90
2018-09-12T00:24:12.024Z,94.10
2018-09-12T00:26:41.613Z,94.20
2018-09-12T00:29:11.180Z,94.40
2018-09-12T00:31:40.759Z,94.50
2018-09-12T00:34:10.369Z,94.60
2018-09-12T00:36:40.006Z,94.50
2018-09-12T00:39:11.659Z,94.30
2018-09-12T00:41:41.342Z,94.60
2018-09-12T00:44:10.968Z,94.70
2018-09-12T00:46:40.552Z,94.80
2018-09-12T00:49:10.200Z,94.80
2018-09-12T00:51:39.821Z,94.90
2018-09-12T00:54:09.398Z,94.90
2018-09-12T00:56:39.047Z,95.00
2018-09-12T00:59:08.663Z,95.10
2018-09-12T01:01:38.305Z,94.90
2018-09-12T01:04:08.244Z,94.90
2018-09-12T01:06:37.889Z,94.90
2018-09-12T01:09:08.092Z,94.90
2018-09-12T01:11:37.695Z,95.10
2018-09-12T01:14:07.449Z,94.90
2018-09-12T01:16:37.124Z,94.90
2018-09-12T01:19:06.727Z,94.90
2018-09-12T01:21:36.312Z,94.80
2018-09-12T01:24:05.893Z,94.60
2018-09-12T01:26:35.504Z,94.70
2018-09-12T01:29:05.214Z,94.50
2018-09-12T01:31:34.820Z,94.60
2018-09-12T01:34:04.469Z,94.40
2018-09-12T01:36:34.107Z,94.40
2018-09-12T01:39:03.931Z,94.20
2018-09-12T01:41:33.554Z,94.10
2018-09-12T01:44:03.200Z,94.10
2018-09-12T01:46:32.756Z,94.20
2018-09-12T01:49:02.300Z,94.10
2018-09-12T01:51:31.927Z,94.10
2018-09-12T01:54:01.543Z,94.20
2018-09-12T01:56:31.200Z,94.30
2018-09-12T01:59:00.774Z,94.20
2018-09-12T02:01:30.373Z,94.20
2018-09-12T02:04:01.331Z,94.30
2018-09-12T02:06:31.404Z,94.30
2018-09-12T02:09:01.014Z,94.40
2018-09-12T02:11:30.653Z,94.50
2018-09-12T02:14:00.264Z,94.60
2018-09-12T02:16:29.872Z,94.60
2018-09-12T02:18:59.470Z,94.60
2018-09-12T02:21:29.153Z,94.80
2018-09-12T02:23:58.854Z,94.70
2018-09-12T02:26:28.614Z,94.80
2018-09-12T02:28:58.302Z,94.70
2018-09-12T02:31:27.906Z,94.70
2018-09-12T02:33:57.516Z,94.60
2018-09-12T02:36:28.472Z,94.70
2018-09-12T02:38:59.413Z,94.70
2018-09-12T02:41:29.101Z,94.70
2018-09-12T02:43:58.705Z,94.60
2018-09-12T02:46:28.341Z,94.60
2018-09-12T02:48:57.963Z,94.60
2018-09-12T02:51:27.827Z,94.60
2018-09-12T02:53:57.415Z,94.60
2018-09-12T02:56:27.046Z,94.60
2018-09-12T02:58:56.652Z,94.60
2018-09-12T03:01:26.348Z,94.60
2018-09-12T03:03:55.927Z,94.70
2018-09-12T03:06:25.528Z,94.60
2018-09-12T03:08:55.154Z,94.70
2018-09-12T03:11:24.702Z,94.60
2018-09-12T03:13:54.371Z,94.50
2018-09-12T03:16:23.971Z,94.30
2018-09-12T03:18:53.663Z,94.20
2018-09-12T03:21:23.322Z,94.30
2018-09-12T03:23:52.878Z,94.10
2018-09-12T03:26:22.495Z,94.10
2018-09-12T03:28:52.249Z,94.30
2018-09-12T03:31:22.635Z,94.20
2018-09-12T03:33:53.532Z,94.10
2018-09-12T03:36:23.874Z,94.10
2018-09-12T03:38:53.659Z,94.00
2018-09-12T03:41:23.297Z,93.90
2018-09-12T03:43:52.901Z,93.80
2018-09-12T03:46:22.508Z,94.00
2018-09-12T03:48:52.085Z,94.00
2018-09-12T03:51:21.709Z,93.80
2018-09-12T03:53:51.287Z,94.00
2018-09-12T03:56:20.925Z,94.50
2018-09-12T03:58:50.640Z,94.30
2018-09-12T04:01:20.258Z,94.40
2018-09-12T04:03:49.837Z,94.60
2018-09-12T04:06:19.913Z,94.80
2018-09-12T04:08:49.587Z,94.80
2018-09-12T04:11:19.238Z,94.80
2018-09-12T04:13:48.861Z,94.80
2018-09-12T04:16:18.616Z,94.90
2018-09-12T04:18:48.390Z,95.10
2018-09-12T04:21:18.362Z,95.10
2018-09-12T04:23:48.148Z,95.20
2018-09-12T04:26:17.776Z,95.00
2018-09-12T04:28:47.376Z,95.00
2018-09-12T04:31:17.000Z,95.10
2018-09-12T04:33:46.575Z,95.10
2018-09-12T04:36:16.198Z,95.30
2018-09-12T04:38:45.758Z,95.20
2018-09-12T04:41:15.350Z,95.20
2018-09-12T04:43:45.396Z,95.10
2018-09-12T04:46:14.956Z,95.00
2018-09-12T04:48:44.547Z,95.00
2018-09-12T04:51:14.152Z,95.20
2018-09-12T04:53:43.761Z,95.10
2018-09-12T04:56:13.375Z,95.30
2018-09-12T04:58:42.959Z,95.10
2018-09-12T05:01:12.566Z,95.10
2018-09-12T05:03:42.198Z,94.90
2018-09-12T05:06:11.783Z,94.80
2018-09-12T05:08:41.396Z,95.00
2018-09-12T05:11:11.028Z,94.90
2018-09-12T05:13:40.579Z,94.70
2018-09-12T05:16:10.193Z,94.70
2018-09-12T05:18:39.830Z,94.80
2018-09-12T05:21:09.427Z,94.60
2018-09-12T05:23:39.009Z,94.70
2018-09-12T05:26:08.672Z,94.80
2018-09-12T05:28:38.858Z,94.60
2018-09-12T05:31:08.457Z,94.80
2018-09-12T05:33:38.153Z,94.60
2018-09-12T05:36:08.164Z,94.50
2018-09-12T05:38:37.913Z,94.70
2018-09-12T05:41:07.608Z,94.60
2018-09-12T05:43:37.245Z,94.40
2018-09-12T05:46:07.257Z,94.10
2018-09-12T05:48:36.970Z,94.10
2018-09-12T05:51:07.080Z,94.10
2018-09-12T05:53:36.736Z,94.00
2018-09-12T05:56:06.352Z,93.90
2018-09-12T05:58:36.118Z,93.80
2018-09-12T06:01:05.789Z,93.90
2018-09-12T06:03:35.541Z,93.80
2018-09-12T06:06:06.329Z,93.70
2018-09-12T06:08:36.049Z,93.50
2018-09-12T06:11:05.694Z,93.50
2018-09-12T06:13:35.335Z,93.50
2018-09-12T06:16:04.925Z,93.50
2018-09-12T06:18:34.488Z,93.70
2018-09-12T06:21:04.153Z,93.60
2018-09-12T06:23:33.728Z,93.40
2018-09-12T06:26:03.320Z,93.30
2018-09-12T06:28:32.986Z,93.30
2018-09-12T06:31:02.577Z,93.40
2018-09-12T06:33:32.280Z,93.40
2018-09-12T06:36:01.935Z,93.50
2018-09-12T06:38:31.685Z,93.50
2018-09-12T06:41:01.305Z,93.40
2018-09-12T06:43:30.889Z,93.20
2018-09-12T06:46:00.801Z,93.40
2018-09-12T06:48:30.484Z,93.20
2018-09-12T06:51:00.179Z,93.30
2018-09-12T06:53:29.802Z,93.30
2018-09-12T06:55:59.488Z,93.40
2018-09-12T06:58:29.101Z,93.60
2018-09-12T07:00:58.747Z,93.40
2018-09-12T07:03:28.472Z,93.40
2018-09-12T07:05:58.067Z,93.50
2018-09-12T07:08:27.628Z,93.60
2018-09-12T07:10:57.253Z,93.40
2018-09-12T07:13:26.823Z,93.50
2018-09-12T07:15:56.383Z,93.20
2018-09-12T07:18:26.089Z,93.20
2018-09-12T07:20:55.662Z,93.40
2018-09-12T07:23:25.294Z,93.30
2018-09-12T07:25:54.965Z,93.40
2018-09-12T07:28:24.549Z,93.10
2018-09-12T07:30:54.259Z,93.10
2018-09-12T07:33:23.807Z,93.30
2018-09-12T07:35:54.422Z,93.20
2018-09-12T07:38:23.982Z,93.20
2018-09-12T07:40:53.663Z,93.00
2018-09-12T07:43:23.323Z,93.10
2018-09-12T07:45:52.990Z,92.80
2018-09-12T07:48:22.785Z,93.00
2018-09-12T07:50:52.399Z,92.50
2018-09-12T07:53:22.039Z,92.20
2018-09-12T07:55:51.631Z,92.60
2018-09-12T07:58:21.361Z,92.60
2018-09-12T08:00:50.961Z,91.70
2018-09-12T08:03:20.531Z,91.40
2018-09-12T08:05:50.204Z,91.60
2018-09-12T08:08:20.050Z,91.50
2018-09-12T08:10:49.683Z,91.60
2018-09-12T08:13:19.364Z,91.30
2018-09-12T08:15:49.067Z,91.40
2018-09-12T08:18:18.657Z,91.30
2018-09-12T08:20:48.265Z,91.50
2018-09-12T08:23:17.897Z,91.30
2018-09-12T08:25:47.458Z,91.30
2018-09-12T08:28:17.082Z,91.30
2018-09-12T08:30:47.406Z,91.60
2018-09-12T08:33:17.057Z,91.30
2018-09-12T08:35:46.715Z,91.40
2018-09-12T08:38:16.322Z,91.20
2018-09-12T08:40:45.893Z,91.40
2018-09-12T08:43:15.574Z,91.30
2018-09-12T08:45:45.646Z,91.50
2018-09-12T08:48:15.360Z,91.60
2018-09-12T08:50:49.479Z,90.90
2018-09-12T08:53:20.106Z,90.70
2018-09-12T08:55:50.340Z,90.60
2018-09-12T08:58:20.088Z,90.40
2018-09-12T09:00:49.715Z,90.90
2018-09-12T09:03:19.355Z,91.10
2018-09-12T09:05:49.214Z,90.60
2018-09-12T09:08:18.830Z,90.60
2018-09-12T09:10:48.477Z,90.80
2018-09-12T09:13:18.187Z,90.80
2018-09-12T09:15:47.818Z,90.90
2018-09-12T09:18:17.442Z,90.30
2018-09-12T09:20:47.124Z,90.30
2018-09-12T09:23:16.718Z,90.30
2018-09-12T09:25:46.437Z,90.40
2018-09-12T09:28:16.033Z,90.50
2018-09-12T09:30:45.660Z,90.40
2018-09-12T09:33:15.366Z,90.20
2018-09-12T09:35:45.092Z,89.40
2018-09-12T09:38:14.593Z,90.60
2018-09-12T09:40:44.300Z,90.40
2018-09-12T09:43:14.055Z,90.10
2018-09-12T09:45:43.656Z,90.00
2018-09-12T09:48:13.375Z,89.70
2018-09-12T09:50:43.008Z,90.30
2018-09-12T09:53:12.620Z,90.70
2018-09-12T09:55:42.266Z,90.60
2018-09-12T09:58:11.865Z,90.50
2018-09-12T10:00:46.564Z,90.80
2018-09-12T10:03:21.189Z,90.60
2018-09-12T10:05:55.823Z,90.40
2018-09-12T10:08:30.127Z,90.60
2018-09-12T10:11:00.241Z,90.00
2018-09-12T10:13:29.813Z,90.20
2018-09-12T10:15:59.442Z,89.70
2018-09-12T10:18:29.149Z,89.50
2018-09-12T10:20:58.738Z,89.60
2018-09-12T10:23:28.426Z,90.00
2018-09-12T10:25:58.009Z,90.00
2018-09-12T10:28:27.624Z,90.20
2018-09-12T10:30:57.231Z,89.50
2018-09-12T10:33:26.785Z,89.40
2018-09-12T10:35:56.524Z,90.00
2018-09-12T10:38:26.172Z,87.80
2018-09-12T10:40:55.771Z,89.40
2018-09-12T10:43:25.458Z,89.70
2018-09-12T10:45:55.107Z,87.90
2018-09-12T10:48:24.731Z,87.30
2018-09-12T10:50:54.366Z,87.70
2018-09-12T10:53:24.037Z,88.50
2018-09-12T10:55:53.669Z,88.70
2018-09-12T10:58:23.332Z,86.50
2018-09-12T11:00:52.981Z,88.20
2018-09-12T11:03:22.628Z,87.20
2018-09-12T11:05:52.311Z,88.20
2018-09-12T11:08:21.964Z,87.70
2018-09-12T11:10:51.591Z,87.40
2018-09-12T11:13:21.244Z,86.80
2018-09-12T11:15:51.007Z,85.90
2018-09-12T11:18:20.730Z,86.70
2018-09-12T11:20:50.357Z,84.30
2018-09-12T11:23:19.941Z,86.10
2018-09-12T11:25:49.570Z,86.70
2018-09-12T11:28:19.303Z,84.50
2018-09-12T11:30:48.942Z,84.00
2018-09-12T11:33:18.538Z,84.80
2018-09-12T11:35:48.214Z,84.10
2018-09-12T11:38:17.949Z,85.50
2018-09-12T11:40:48.577Z,83.80
2018-09-12T11:43:18.281Z,85.30
2018-09-12T11:45:48.003Z,84.50
2018-09-12T11:48:18.417Z,84.40
2018-09-12T11:50:48.200Z,84.60
2018-09-12T11:53:18.052Z,84.20
2018-09-12T11:55:47.833Z,84.30
2018-09-12T11:58:17.454Z,83.90
2018-09-12T12:00:47.125Z,83.30
2018-09-12T12:03:16.811Z,82.90
2018-09-12T12:05:46.465Z,82.10
2018-09-12T12:08:16.183Z,84.00
2018-09-12T12:10:45.812Z,82.20
2018-09-12T12:13:15.514Z,80.80
2018-09-12T12:15:45.155Z,82.70
2018-09-12T12:18:14.847Z,82.90
2018-09-12T12:20:44.562Z,82.10
2018-09-12T12:23:14.393Z,82.00
2018-09-12T12:25:49.514Z,81.80
2018-09-12T12:28:19.266Z,80.80
2018-09-12T12:30:48.958Z,82.50
2018-09-12T12:33:18.612Z,81.90
2018-09-12T12:35:48.295Z,80.40
2018-09-12T12:38:17.971Z,81.10
2018-09-12T12:42:20.194Z,80.40
2018-09-12T12:44:50.115Z,81.30
2018-09-12T12:47:20.032Z,79.30
2018-09-12T12:49:49.873Z,79.90
2018-09-12T12:52:19.618Z,81.30
2018-09-12T12:54:49.469Z,80.80
2018-09-12T12:57:19.101Z,80.60
2018-09-12T12:59:48.783Z,80.70
2018-09-12T13:02:18.537Z,81.20
2018-09-12T13:04:48.178Z,81.60
2018-09-12T13:07:17.839Z,80.80
2018-09-12T13:09:47.543Z,77.90
2018-09-12T13:12:17.213Z,78.30
2018-09-12T13:14:46.925Z,79.10
2018-09-12T13:17:16.655Z,78.20
2018-09-12T13:19:46.310Z,77.90
2018-09-12T13:22:15.958Z,78.20
2018-09-12T13:24:45.639Z,77.30
2018-09-12T13:27:15.337Z,77.90
2018-09-12T13:29:45.040Z,77.90
2018-09-12T13:32:14.749Z,76.70
2018-09-12T13:34:44.381Z,77.10
2018-09-12T13:37:14.202Z,78.80
2018-09-12T13:39:43.857Z,78.60
2018-09-12T13:42:13.553Z,79.50
2018-09-12T13:44:43.313Z,79.10
2018-09-12T13:47:13.073Z,78.80
2018-09-12T13:49:42.758Z,80.10
2018-09-12T13:52:12.599Z,80.50
2018-09-12T13:54:42.294Z,80.80
2018-09-12T13:57:12.032Z,80.40
2018-09-12T13:59:43.593Z,81.00
2018-09-12T14:02:13.422Z,80.40
2018-09-12T14:04:43.103Z,80.10
2018-09-12T14:07:12.804Z,81.50
2018-09-12T14:09:42.664Z,81.50
2018-09-12T14:12:12.438Z,80.40
2018-09-12T14:14:42.238Z,79.40
2018-09-12T14:17:11.979Z,79.20
2018-09-12T14:19:41.666Z,79.80
2018-09-12T14:22:11.576Z,79.70
2018-09-12T14:24:41.480Z,80.10
2018-09-12T14:27:11.387Z,78.70
2018-09-12T14:29:41.450Z,79.90
2018-09-12T14:32:11.257Z,81.30
2018-09-12T14:34:41.242Z,80.40
2018-09-12T14:37:11.012Z,81.50
2018-09-12T14:39:40.808Z,82.20
2018-09-12T14:42:10.678Z,81.50
2018-09-12T14:44:40.582Z,81.40
2018-09-12T14:47:10.329Z,80.30
2018-09-12T14:49:40.444Z,79.60
2018-09-12T14:52:10.819Z,80.30
2018-09-12T14:54:40.785Z,80.40
2018-09-12T14:57:10.651Z,81.00
2018-09-12T14:59:40.484Z,81.40
2018-09-12T15:02:10.274Z,81.50
2018-09-12T15:04:40.255Z,82.50
2018-09-12T15:07:10.393Z,82.30
2018-09-12T15:09:40.372Z,82.60
2018-09-12T15:12:10.490Z,82.50
2018-09-12T15:14:40.293Z,82.80
2018-09-12T15:17:09.924Z,83.40
2018-09-12T15:19:39.743Z,82.90
2018-09-12T15:22:09.350Z,82.80
2018-09-12T15:24:38.977Z,82.60
2018-09-12T15:27:08.571Z,82.30
2018-09-12T15:29:38.141Z,82.70
2018-09-12T15:32:07.789Z,83.20
2018-09-12T15:34:37.413Z,83.20
2018-09-12T15:37:07.102Z,82.20
2018-09-12T15:39:36.785Z,82.00
2018-09-12T15:42:06.418Z,81.70
2018-09-12T15:44:36.042Z,81.60
2018-09-12T15:47:05.733Z,81.50
2018-09-12T15:49:35.404Z,80.40
2018-09-12T15:52:05.040Z,79.60
2018-09-12T15:54:34.678Z,79.30
2018-09-12T15:57:04.270Z,79.00
2018-09-12T15:59:33.885Z,79.80
2018-09-12T16:02:03.549Z,79.50
2018-09-12T16:04:33.302Z,79.10
2018-09-12T16:07:02.864Z,79.70
2018-09-12T16:09:32.447Z,79.70
2018-09-12T16:12:02.159Z,79.20
2018-09-12T16:14:31.703Z,80.10
2018-09-12T16:17:01.301Z,80.80
2018-09-12T16:19:30.959Z,81.20
2018-09-12T16:22:00.616Z,82.20
2018-09-12T16:24:30.258Z,82.80
2018-09-12T16:26:59.915Z,83.50
2018-09-12T16:29:29.457Z,84.20
2018-09-12T16:31:59.128Z,84.60
2018-09-12T16:34:28.717Z,85.00
2018-09-12T16:36:58.409Z,85.50
2018-09-12T16:39:28.079Z,85.70
2018-09-12T16:41:57.774Z,85.90
2018-09-12T16:44:27.448Z,86.50
2018-09-12T16:46:57.086Z,86.90
2018-09-12T16:49:26.695Z,87.00
2018-09-12T16:51:56.396Z,87.40
2018-09-12T16:54:26.036Z,87.30
2018-09-12T16:56:55.944Z,87.50
2018-09-12T16:59:25.594Z,87.30
2018-09-12T17:01:55.402Z,88.00
2018-09-12T17:04:24.972Z,88.80
2018-09-12T17:06:54.944Z,88.70
2018-09-12T17:09:24.555Z,89.90
2018-09-12T17:11:54.290Z,90.10
2018-09-12T17:14:23.924Z,89.80
2018-09-12T17:16:53.813Z,89.80
2018-09-12T17:19:23.484Z,89.60
2018-09-12T17:21:53.088Z,90.00
2018-09-12T17:24:22.826Z,90.10
2018-09-12T17:26:52.480Z,89.90
2018-09-12T17:29:22.210Z,90.10
2018-09-12T17:31:51.905Z,90.10
2018-09-12T17:34:21.659Z,90.20
2018-09-12T17:36:51.577Z,90.30
2018-09-12T17:39:21.229Z,90.40
2018-09-12T17:41:50.928Z,90.80
2018-09-12T17:44:20.662Z,91.00
2018-09-12T17:46:50.444Z,90.80
2018-09-12T17:49:20.018Z,90.70
2018-09-12T17:51:49.631Z,90.70
2018-09-12T17:54:19.368Z,90.70
2018-09-12T17:56:48.982Z,90.60
2018-09-12T17:59:18.548Z,90.80
2018-09-12T18:01:48.299Z,90.70
2018-09-12T18:04:17.904Z,91.00
2018-09-12T18:06:47.590Z,91.20
2018-09-12T18:09:17.186Z,91.30
2018-09-12T18:11:46.799Z,91.30
2018-09-12T18:14:16.815Z,91.30
2018-09-12T18:16:47.043Z,91.10
2018-09-12T18:19:16.750Z,91.00
2018-09-12T18:21:46.411Z,91.30
2018-09-12T18:24:20.707Z,91.30
2018-09-12T18:26:51.357Z,91.40
2018-09-12T18:29:21.396Z,91.60
2018-09-12T18:31:51.072Z,91.20
2018-09-12T18:34:20.880Z,91.00
2018-09-12T18:36:50.502Z,91.10
2018-09-12T18:39:20.133Z,91.20
2018-09-12T18:41:49.905Z,91.10
2018-09-12T18:44:19.487Z,91.40
2018-09-12T18:46:49.293Z,91.60
2018-09-12T18:49:18.912Z,91.80
2018-09-12T18:51:48.649Z,91.80
2018-09-12T18:54:18.282Z,92.00
2018-09-12T18:56:47.945Z,92.10
2018-09-12T18:59:17.537Z,92.40
2018-09-12T19:01:47.194Z,92.40
2018-09-12T19:04:16.754Z,92.30
2018-09-12T19:06:46.457Z,92.40
2018-09-12T19:09:16.341Z,92.50
2018-09-12T19:11:45.949Z,92.70
2018-09-12T19:14:15.687Z,92.90
2018-09-12T19:16:45.305Z,92.70
2018-09-12T19:19:14.973Z,92.60
2018-09-12T19:21:44.597Z,92.60
2018-09-12T19:24:14.237Z,92.90
2018-09-12T19:26:43.835Z,92.60
2018-09-12T19:29:13.467Z,92.60
2018-09-12T19:31:43.096Z,92.70
2018-09-12T19:34:12.754Z,92.80
2018-09-12T19:36:42.322Z,92.80
2018-09-12T19:39:12.072Z,92.80
2018-09-12T19:41:41.735Z,92.80
2018-09-12T19:44:11.382Z,92.70
2018-09-12T19:46:40.980Z,92.60
2018-09-12T19:49:10.563Z,92.60
2018-09-12T19:51:40.158Z,92.70
2018-09-12T19:54:09.746Z,92.90
2018-09-12T19:56:39.357Z,92.80
2018-09-12T19:59:08.931Z,92.90
2018-09-12T20:01:38.510Z,93.00
2018-09-12T20:04:08.152Z,92.90
2018-09-12T20:06:37.769Z,93.00
2018-09-12T20:09:10.063Z,93.00
2018-09-12T20:11:39.777Z,93.10
2018-09-12T20:16:14.971Z,92.70
2018-09-12T20:18:44.590Z,92.80
2018-09-12T20:21:14.335Z,92.90
2018-09-12T20:23:44.030Z,93.00
2018-09-12T20:26:13.613Z,92.90
2018-09-12T20:28:47.565Z,92.90
2018-09-12T20:31:17.162Z,93.20
2018-09-12T20:33:47.105Z,93.50
2018-09-12T20:36:16.729Z,93.60
2018-09-12T20:38:46.260Z,93.70
2018-09-12T20:41:15.867Z,93.70
2018-09-12T20:43:45.569Z,93.80
2018-09-12T20:46:15.172Z,93.80
2018-09-12T20:48:44.920Z,94.00
2018-09-12T20:51:14.530Z,93.80
2018-09-12T20:53:44.154Z,93.80
2018-09-12T20:56:13.820Z,93.80
2018-09-12T20:58:43.628Z,93.70
2018-09-12T21:01:13.219Z,93.70
2018-09-12T21:03:42.845Z,93.90
2018-09-12T21:06:12.451Z,93.90
2018-09-12T21:08:42.114Z,93.80
2018-09-12T21:11:11.799Z,93.80
2018-09-12T21:13:41.368Z,93.80
2018-09-12T21:16:10.990Z,93.80
2018-09-12T21:18:40.593Z,93.90
2018-09-12T21:21:10.345Z,93.90
2018-09-12T21:23:39.996Z,93.80
2018-09-12T21:26:09.568Z,93.80
2018-09-12T21:28:39.134Z,93.90
2018-09-12T21:31:08.744Z,94.10
2018-09-12T21:33:38.362Z,94.30
2018-09-12T21:36:08.064Z,94.40
2018-09-12T21:38:37.694Z,94.10
2018-09-12T21:41:07.581Z,94.00
2018-09-12T21:43:37.181Z,94.10
2018-09-12T21:46:06.784Z,94.10
2018-09-12T21:48:36.498Z,94.00
2018-09-12T21:51:06.169Z,93.90
2018-09-12T21:53:35.784Z,93.80
2018-09-12T21:56:05.315Z,93.70
2018-09-12T21:58:34.940Z,93.80
2018-09-12T22:01:04.663Z,93.90
2018-09-12T22:03:34.343Z,94.00
2018-09-12T22:06:04.088Z,93.90
2018-09-12T22:08:33.755Z,94.00
2018-09-12T22:11:03.389Z,93.90
2018-09-12T22:13:32.961Z,93.90
2018-09-12T22:16:02.521Z,93.80
2018-09-12T22:18:32.164Z,93.80
2018-09-12T22:21:01.757Z,93.90
2018-09-12T22:23:31.410Z,94.20
2018-09-12T22:26:01.072Z,94.10
2018-09-12T22:28:30.688Z,93.90
2018-09-12T22:31:00.340Z,94.00
2018-09-12T22:33:30.025Z,94.10
2018-09-12T22:35:59.635Z,94.00
2018-09-12T22:38:29.196Z,94.10
2018-09-12T22:40:58.793Z,94.00
2018-09-12T22:43:28.550Z,94.10
2018-09-12T22:45:58.210Z,94.10
2018-09-12T22:48:27.876Z,94.00
2018-09-12T22:50:57.485Z,93.90
2018-09-12T22:53:27.160Z,93.90
2018-09-12T22:55:56.783Z,93.80
2018-09-12T22:58:26.382Z,93.70
2018-09-12T23:00:56.126Z,93.90
2018-09-12T23:03:25.783Z,93.90
2018-09-12T23:05:55.432Z,94.20
2018-09-12T23:08:25.136Z,94.30
2018-09-12T23:10:54.774Z,94.20
2018-09-12T23:13:24.490Z,94.20
2018-09-12T23:15:54.160Z,94.40
2018-09-12T23:18:23.912Z,94.30
2018-09-12T23:20:53.534Z,94.30
2018-09-12T23:23:23.129Z,94.20
2018-09-12T23:25:52.758Z,94.30
2018-09-12T23:28:22.367Z,94.30
2018-09-12T23:30:52.104Z,94.40
2018-09-12T23:33:21.675Z,94.40
2018-09-12T23:35:51.276Z,94.20
2018-09-12T23:38:21.028Z,94.20
2018-09-12T23:40:50.637Z,94.30
2018-09-12T23:43:20.243Z,94.30
2018-09-12T23:45:49.903Z,94.30
2018-09-12T23:48:19.474Z,94.30
2018-09-12T23:50:49.143Z,94.30
2018-09-12T23:53:18.732Z,94.20
2018-09-12T23:55:48.391Z,94.10
2018-09-12T23:58:18.079Z,94.10
